createdAt,value
2023-01-08T00:00:34.455Z,0.00
2023-01-08T00:01:34.384Z,0.00
2023-01-08T00:02:34.414Z,0.00
2023-01-08T00:03:34.473Z,0.00
2023-01-08T00:04:34.345Z,0.00
2023-01-08T00:05:34.336Z,0.00
2023-01-08T00:06:35.628Z,0.00
2023-01-08T00:07:34.346Z,0.00
2023-01-08T00:08:34.343Z,0.00
2023-01-08T00:09:34.286Z,0.00
2023-01-08T00:10:34.270Z,0.00
2023-01-08T00:11:34.285Z,0.00
2023-01-08T00:12:34.281Z,0.00
2023-01-08T00:13:34.304Z,0.00
2023-01-08T00:14:34.235Z,0.00
2023-01-08T00:15:34.213Z,0.00
2023-01-08T00:16:34.210Z,0.00
2023-01-08T00:17:34.211Z,0.00
2023-01-08T00:18:34.165Z,0.00
2023-01-08T00:19:34.159Z,0.00
2023-01-08T00:20:34.175Z,0.00
2023-01-08T00:21:34.117Z,0.00
2023-01-08T00:22:34.118Z,0.00
2023-01-08T00:23:34.107Z,0.00
2023-01-08T00:24:34.077Z,0.00
2023-01-08T00:25:34.072Z,0.00
2023-01-08T00:26:34.051Z,0.00
2023-01-08T00:27:34.057Z,0.00
2023-01-08T00:28:34.034Z,0.00
2023-01-08T00:29:34.030Z,0.00
2023-01-08T00:30:34.023Z,0.00
2023-01-08T00:31:34.003Z,0.00
2023-01-08T00:32:33.986Z,0.00
2023-01-08T00:33:33.953Z,0.00
2023-01-08T00:34:33.949Z,0.00
2023-01-08T00:35:33.949Z,0.00
2023-01-08T00:36:33.930Z,0.00
2023-01-08T00:37:33.918Z,0.00
2023-01-08T00:38:33.893Z,0.00
2023-01-08T00:39:33.870Z,0.00
2023-01-08T00:40:33.861Z,0.00
2023-01-08T00:41:33.861Z,0.00
2023-01-08T00:42:33.860Z,0.00
2023-01-08T00:43:33.837Z,0.00
2023-01-08T00:44:33.820Z,0.00
2023-01-08T00:45:40.854Z,0.00
2023-01-08T00:46:33.776Z,0.00
2023-01-08T00:47:33.776Z,0.00
2023-01-08T00:48:33.774Z,0.00
2023-01-08T00:49:33.735Z,0.00
2023-01-08T00:50:33.725Z,0.00
2023-01-08T00:51:33.708Z,0.00
2023-01-08T00:52:33.708Z,0.00
2023-01-08T00:53:33.710Z,0.00
2023-01-08T00:54:33.703Z,0.00
2023-01-08T00:55:33.655Z,0.00
2023-01-08T00:56:33.654Z,0.00
2023-01-08T00:57:33.626Z,0.00
2023-01-08T00:58:33.636Z,0.00
2023-01-08T00:59:33.756Z,0.00
2023-01-08T01:00:33.595Z,0.00
2023-01-08T01:01:33.714Z,0.00
2023-01-08T01:02:33.567Z,0.00
2023-01-08T01:03:33.575Z,0.00
2023-01-08T01:04:33.558Z,0.00
2023-01-08T01:05:33.521Z,0.00
2023-01-08T01:06:33.507Z,0.00
2023-01-08T01:07:33.507Z,0.00
2023-01-08T01:08:33.486Z,0.00
2023-01-08T01:09:33.474Z,0.00
2023-01-08T01:10:33.468Z,0.00
2023-01-08T01:11:33.438Z,0.00
2023-01-08T01:12:33.448Z,0.00
2023-01-08T01:13:33.408Z,0.00
2023-01-08T01:14:33.412Z,0.00
2023-01-08T01:15:33.379Z,0.00
2023-01-08T01:16:33.471Z,0.00
2023-01-08T01:17:33.390Z,0.00
2023-01-08T01:18:33.366Z,0.00
2023-01-08T01:19:33.339Z,0.00
2023-01-08T01:20:33.330Z,0.00
2023-01-08T01:21:33.308Z,0.00
2023-01-08T01:22:33.309Z,0.00
2023-01-08T01:23:33.269Z,0.00
2023-01-08T01:24:33.282Z,0.00
2023-01-08T01:25:33.270Z,0.00
2023-01-08T01:26:33.249Z,0.00
2023-01-08T01:27:33.251Z,0.00
2023-01-08T01:28:33.220Z,0.00
2023-01-08T01:29:33.202Z,0.00
2023-01-08T01:30:33.208Z,0.00
2023-01-08T01:31:33.179Z,0.00
2023-01-08T01:32:33.180Z,0.00
2023-01-08T01:33:33.150Z,0.00
2023-01-08T01:34:33.131Z,0.00
2023-01-08T01:35:33.118Z,0.00
2023-01-08T01:36:33.112Z,0.00
2023-01-08T01:37:33.131Z,0.00
2023-01-08T01:38:33.080Z,0.00
2023-01-08T01:39:33.076Z,0.00
2023-01-08T01:40:33.051Z,0.00
2023-01-08T01:41:33.038Z,0.00
2023-01-08T01:42:33.049Z,0.00
2023-01-08T01:43:33.013Z,0.00
2023-01-08T01:44:33.005Z,0.00
2023-01-08T01:45:33.029Z,0.00
2023-01-08T01:46:32.970Z,0.00
2023-01-08T01:47:32.984Z,0.00
2023-01-08T01:48:32.950Z,0.00
2023-01-08T01:49:32.923Z,0.00
2023-01-08T01:50:32.941Z,0.00
2023-01-08T01:51:32.922Z,0.00
2023-01-08T01:52:32.893Z,0.00
2023-01-08T01:53:32.891Z,0.00
2023-01-08T01:54:32.864Z,0.00
2023-01-08T01:55:32.853Z,0.00
2023-01-08T01:56:32.854Z,0.00
2023-01-08T01:57:32.814Z,0.00
2023-01-08T01:58:32.819Z,0.00
2023-01-08T01:59:32.786Z,0.00
2023-01-08T02:00:32.784Z,0.00
2023-01-08T02:01:32.877Z,0.00
2023-01-08T02:02:32.797Z,0.00
2023-01-08T02:03:32.743Z,0.00
2023-01-08T02:04:32.751Z,0.00
2023-01-08T02:05:32.715Z,0.00
2023-01-08T02:06:32.693Z,0.00
2023-01-08T02:07:32.715Z,0.00
2023-01-08T02:08:32.666Z,0.00
2023-01-08T02:09:32.651Z,0.00
2023-01-08T02:10:32.651Z,0.00
2023-01-08T02:11:32.653Z,0.00
2023-01-08T02:12:32.665Z,0.00
2023-01-08T02:13:32.602Z,0.00
2023-01-08T02:14:32.594Z,0.00
2023-01-08T02:15:32.572Z,0.00
2023-01-08T02:16:32.614Z,0.00
2023-01-08T02:17:32.535Z,0.00
2023-01-08T02:18:32.559Z,0.00
2023-01-08T02:19:32.515Z,0.00
2023-01-08T02:20:32.516Z,0.00
2023-01-08T02:21:32.524Z,0.00
2023-01-08T02:22:32.485Z,0.00
2023-01-08T02:23:32.467Z,0.00
2023-01-08T02:24:32.468Z,0.00
2023-01-08T02:25:32.435Z,0.00
2023-01-08T02:26:32.459Z,0.00
2023-01-08T02:27:32.416Z,0.00
2023-01-08T02:28:32.408Z,0.00
2023-01-08T02:29:32.384Z,0.00
2023-01-08T02:30:32.414Z,0.00
2023-01-08T02:31:32.394Z,0.00
2023-01-08T02:32:32.347Z,0.00
2023-01-08T02:33:32.328Z,0.00
2023-01-08T02:34:32.325Z,0.00
2023-01-08T02:35:32.309Z,0.00
2023-01-08T02:36:32.309Z,0.00
2023-01-08T02:37:32.281Z,0.00
2023-01-08T02:38:32.266Z,0.00
2023-01-08T02:39:32.244Z,0.00
2023-01-08T02:40:32.237Z,0.00
2023-01-08T02:41:32.250Z,0.00
2023-01-08T02:42:32.221Z,0.00
2023-01-08T02:43:32.197Z,0.00
2023-01-08T02:44:32.188Z,0.00
2023-01-08T02:45:32.182Z,0.00
2023-01-08T02:46:32.180Z,0.00
2023-01-08T02:47:32.145Z,0.00
2023-01-08T02:48:32.141Z,0.00
2023-01-08T02:49:32.122Z,0.00
2023-01-08T02:50:32.115Z,0.00
2023-01-08T02:51:32.109Z,0.00
2023-01-08T02:52:32.086Z,0.00
2023-01-08T02:53:32.068Z,0.00
2023-01-08T02:54:32.054Z,0.00
2023-01-08T02:55:32.030Z,0.00
2023-01-08T02:56:32.045Z,0.00
2023-01-08T02:57:32.011Z,0.00
2023-01-08T02:58:32.013Z,0.00
2023-01-08T02:59:31.978Z,0.00
2023-01-08T03:00:31.977Z,0.00
2023-01-08T03:01:32.107Z,0.00
2023-01-08T03:02:31.994Z,0.00
2023-01-08T03:03:31.927Z,0.00
2023-01-08T03:04:31.938Z,0.00
2023-01-08T03:05:31.890Z,0.00
2023-01-08T03:06:31.901Z,0.00
2023-01-08T03:07:31.875Z,0.00
2023-01-08T03:08:31.850Z,0.00
2023-01-08T03:09:31.868Z,0.00
2023-01-08T03:10:31.838Z,0.00
2023-01-08T03:11:31.850Z,0.00
2023-01-08T03:12:31.810Z,0.00
2023-01-08T03:13:31.792Z,0.00
2023-01-08T03:14:31.780Z,0.00
2023-01-08T03:15:31.770Z,0.00
2023-01-08T03:16:31.789Z,0.00
2023-01-08T03:17:31.747Z,0.00
2023-01-08T03:18:31.722Z,0.00
2023-01-08T03:19:31.714Z,0.00
2023-01-08T03:20:31.693Z,0.00
2023-01-08T03:21:31.699Z,0.00
2023-01-08T03:22:31.681Z,0.00
2023-01-08T03:23:31.653Z,0.00
2023-01-08T03:24:31.652Z,0.00
2023-01-08T03:25:31.627Z,0.00
2023-01-08T03:26:31.651Z,0.00
2023-01-08T03:27:31.601Z,0.00
2023-01-08T03:28:31.586Z,0.00
2023-01-08T03:29:31.565Z,0.00
2023-01-08T03:30:31.618Z,0.00
2023-01-08T03:31:31.556Z,0.00
2023-01-08T03:32:31.536Z,0.00
2023-01-08T03:33:31.515Z,0.00
2023-01-08T03:34:31.507Z,0.00
2023-01-08T03:35:31.491Z,0.00
2023-01-08T03:36:31.497Z,0.00
2023-01-08T03:37:31.463Z,0.00
2023-01-08T03:38:31.455Z,0.00
2023-01-08T03:39:31.436Z,0.00
2023-01-08T03:40:31.424Z,0.00
2023-01-08T03:41:31.429Z,0.00
2023-01-08T03:42:31.404Z,0.00
2023-01-08T03:43:31.397Z,0.00
2023-01-08T03:44:31.368Z,0.00
2023-01-08T03:45:31.367Z,0.00
2023-01-08T03:46:31.434Z,0.00
2023-01-08T03:47:31.327Z,0.00
2023-01-08T03:48:31.322Z,0.00
2023-01-08T03:49:31.308Z,0.00
2023-01-08T03:50:31.303Z,0.00
2023-01-08T03:51:31.301Z,0.00
2023-01-08T03:52:31.269Z,0.00
2023-01-08T03:53:31.253Z,0.00
2023-01-08T03:54:31.240Z,0.00
2023-01-08T03:55:31.213Z,0.00
2023-01-08T03:56:31.229Z,0.00
2023-01-08T03:57:31.194Z,0.00
2023-01-08T03:58:31.178Z,0.00
2023-01-08T03:59:31.158Z,0.00
2023-01-08T04:00:31.163Z,0.00
2023-01-08T04:01:31.228Z,0.00
2023-01-08T04:02:31.278Z,0.00
2023-01-08T04:03:31.113Z,0.00
2023-01-08T04:04:31.113Z,0.00
2023-01-08T04:05:31.079Z,0.00
2023-01-08T04:06:31.089Z,0.00
2023-01-08T04:07:31.077Z,0.00
2023-01-08T04:08:31.060Z,0.00
2023-01-08T04:09:31.041Z,0.00
2023-01-08T04:10:31.059Z,0.00
2023-01-08T04:11:31.009Z,0.00
2023-01-08T04:12:31.008Z,0.00
2023-01-08T04:13:30.982Z,0.00
2023-01-08T04:14:30.969Z,0.00
2023-01-08T04:15:30.979Z,0.00
2023-01-08T04:16:30.960Z,0.00
2023-01-08T04:17:30.931Z,0.00
2023-01-08T04:18:30.920Z,0.00
2023-01-08T04:19:30.900Z,0.00
2023-01-08T04:20:30.910Z,0.00
2023-01-08T04:21:30.880Z,0.00
2023-01-08T04:22:30.867Z,0.00
2023-01-08T04:23:30.848Z,0.00
2023-01-08T04:24:30.842Z,0.00
2023-01-08T04:25:30.843Z,0.00
2023-01-08T04:26:30.815Z,0.00
2023-01-08T04:27:30.813Z,0.00
2023-01-08T04:28:30.783Z,0.00
2023-01-08T04:29:30.774Z,0.00
2023-01-08T04:30:30.780Z,0.00
2023-01-08T04:31:30.783Z,0.00
2023-01-08T04:32:30.739Z,0.00
2023-01-08T04:33:30.725Z,0.00
2023-01-08T04:34:30.704Z,0.00
2023-01-08T04:35:30.707Z,0.00
2023-01-08T04:36:30.679Z,0.00
2023-01-08T04:37:30.668Z,0.00
2023-01-08T04:38:30.663Z,0.00
2023-01-08T04:39:30.632Z,0.00
2023-01-08T04:40:30.974Z,0.00
2023-01-08T04:41:30.612Z,0.00
2023-01-08T04:42:30.600Z,0.00
2023-01-08T04:43:30.583Z,0.00
2023-01-08T04:44:30.596Z,0.00
2023-01-08T04:45:30.583Z,0.00
2023-01-08T04:46:30.597Z,0.00
2023-01-08T04:47:30.537Z,0.00
2023-01-08T04:48:30.515Z,0.00
2023-01-08T04:49:30.514Z,0.00
2023-01-08T04:50:30.505Z,0.00
2023-01-08T04:51:30.482Z,0.00
2023-01-08T04:52:30.456Z,0.00
2023-01-08T04:53:30.466Z,0.00
2023-01-08T04:54:30.454Z,0.00
2023-01-08T04:55:30.452Z,0.00
2023-01-08T04:56:30.417Z,0.00
2023-01-08T04:57:30.405Z,0.00
2023-01-08T04:58:30.386Z,0.00
2023-01-08T04:59:30.374Z,0.00
2023-01-08T05:00:30.377Z,0.00
2023-01-08T05:01:30.463Z,0.00
2023-01-08T05:02:30.513Z,0.00
2023-01-08T05:03:30.365Z,0.00
2023-01-08T05:04:30.307Z,0.00
2023-01-08T05:05:30.314Z,0.00
2023-01-08T05:06:30.275Z,0.00
2023-01-08T05:07:30.287Z,0.00
2023-01-08T05:08:30.259Z,0.00
2023-01-08T05:09:30.238Z,0.00
2023-01-08T05:10:30.248Z,0.00
2023-01-08T05:11:30.561Z,0.00
2023-01-08T05:12:30.195Z,0.00
2023-01-08T05:13:30.185Z,0.00
2023-01-08T05:14:30.167Z,0.00
2023-01-08T05:15:30.291Z,0.00
2023-01-08T05:16:30.147Z,0.00
2023-01-08T05:17:30.128Z,0.00
2023-01-08T05:18:30.131Z,0.00
2023-01-08T05:19:30.125Z,0.00
2023-01-08T05:20:30.125Z,0.00
2023-01-08T05:21:30.075Z,0.00
2023-01-08T05:22:30.062Z,0.00
2023-01-08T05:23:30.056Z,0.00
2023-01-08T05:24:30.039Z,0.00
2023-01-08T05:25:30.055Z,0.00
2023-01-08T05:26:30.014Z,0.00
2023-01-08T05:27:29.999Z,0.00
2023-01-08T05:28:29.984Z,0.00
2023-01-08T05:29:30.012Z,0.00
2023-01-08T05:30:29.940Z,0.00
2023-01-08T05:31:29.996Z,0.00
2023-01-08T05:32:29.919Z,0.00
2023-01-08T05:33:29.911Z,0.00
2023-01-08T05:34:29.908Z,0.00
2023-01-08T05:35:29.890Z,0.00
2023-01-08T05:36:29.874Z,0.00
2023-01-08T05:37:29.860Z,0.00
2023-01-08T05:38:29.854Z,0.00
2023-01-08T05:39:29.861Z,0.00
2023-01-08T05:40:29.818Z,0.00
2023-01-08T05:41:29.803Z,0.00
2023-01-08T05:42:29.792Z,0.00
2023-01-08T05:43:29.782Z,0.00
2023-01-08T05:44:29.781Z,0.00
2023-01-08T05:45:29.753Z,0.00
2023-01-08T05:46:29.816Z,0.00
2023-01-08T05:47:29.741Z,0.00
2023-01-08T05:48:29.702Z,0.00
2023-01-08T05:49:29.713Z,0.00
2023-01-08T05:50:29.706Z,0.00
2023-01-08T05:51:29.673Z,0.00
2023-01-08T05:52:29.655Z,0.00
2023-01-08T05:53:29.656Z,0.00
2023-01-08T05:54:29.662Z,0.00
2023-01-08T05:55:29.641Z,0.00
2023-01-08T05:56:29.593Z,0.00
2023-01-08T05:57:29.601Z,0.00
2023-01-08T05:58:29.573Z,0.00
2023-01-08T05:59:29.592Z,0.00
2023-01-08T06:00:29.543Z,0.00
2023-01-08T06:01:29.607Z,0.00
2023-01-08T06:02:29.547Z,0.00
2023-01-08T06:03:29.506Z,0.00
2023-01-08T06:04:29.593Z,0.00
2023-01-08T06:05:29.495Z,0.00
2023-01-08T06:06:29.464Z,0.00
2023-01-08T06:07:29.459Z,0.00
2023-01-08T06:08:29.442Z,0.00
2023-01-08T06:09:29.477Z,0.00
2023-01-08T06:10:29.437Z,0.00
2023-01-08T06:11:29.406Z,0.00
2023-01-08T06:12:29.387Z,0.00
2023-01-08T06:13:29.375Z,0.00
2023-01-08T06:14:29.378Z,0.00
2023-01-08T06:15:29.357Z,0.00
2023-01-08T06:16:29.341Z,0.00
2023-01-08T06:17:29.329Z,0.00
2023-01-08T06:18:29.456Z,0.00
2023-01-08T06:19:29.317Z,0.00
2023-01-08T06:20:29.289Z,0.00
2023-01-08T06:21:29.274Z,0.00
2023-01-08T06:22:29.247Z,0.00
2023-01-08T06:23:29.251Z,0.00
2023-01-08T06:24:29.228Z,0.00
2023-01-08T06:25:29.234Z,0.00
2023-01-08T06:26:29.195Z,0.00
2023-01-08T06:27:29.187Z,0.00
2023-01-08T06:28:29.168Z,0.00
2023-01-08T06:29:29.166Z,0.00
2023-01-08T06:30:29.158Z,0.00
2023-01-08T06:31:29.214Z,0.00
2023-01-08T06:32:29.118Z,0.00
2023-01-08T06:33:29.115Z,0.00
2023-01-08T06:34:29.087Z,0.00
2023-01-08T06:35:29.102Z,0.00
2023-01-08T06:36:29.071Z,0.00
2023-01-08T06:37:29.058Z,0.00
2023-01-08T06:38:29.040Z,0.00
2023-01-08T06:39:29.041Z,0.00
2023-01-08T06:40:29.009Z,0.00
2023-01-08T06:41:28.998Z,0.00
2023-01-08T06:42:28.989Z,0.00
2023-01-08T06:43:28.978Z,0.00
2023-01-08T06:44:28.976Z,0.00
2023-01-08T06:45:28.948Z,0.00
2023-01-08T06:47:38.754Z,0.00
2023-01-08T06:48:38.735Z,0.00
2023-01-08T06:49:38.721Z,0.00
2023-01-08T06:50:38.709Z,0.00
2023-01-08T06:51:38.689Z,0.00
2023-01-08T06:52:38.675Z,0.00
2023-01-08T06:53:38.663Z,0.00
2023-01-08T06:54:38.671Z,0.00
2023-01-08T06:55:38.653Z,0.00
2023-01-08T06:56:52.639Z,0.00
2023-01-08T06:57:39.656Z,0.00
2023-01-08T06:58:38.610Z,0.00
2023-01-08T06:59:38.604Z,0.00
2023-01-08T07:00:38.585Z,0.00
2023-01-08T07:01:38.687Z,0.00
2023-01-08T07:02:38.714Z,0.00
2023-01-08T07:03:38.558Z,0.00
2023-01-08T07:04:38.520Z,0.00
2023-01-08T07:05:38.527Z,0.00
2023-01-08T07:06:38.519Z,0.00
2023-01-08T07:07:38.494Z,0.00
2023-01-08T07:08:38.476Z,0.00
2023-01-08T07:09:38.530Z,0.00
2023-01-08T07:10:38.457Z,0.00
2023-01-08T07:11:38.421Z,4.00
2023-01-08T07:12:38.423Z,4.00
2023-01-08T07:13:38.401Z,4.00
2023-01-08T07:14:38.516Z,0.00
2023-01-08T07:15:38.395Z,4.00
2023-01-08T07:16:38.358Z,4.00
2023-01-08T07:17:38.370Z,4.00
2023-01-08T07:18:38.368Z,4.00
2023-01-08T07:19:38.333Z,4.00
2023-01-08T07:20:38.326Z,4.00
2023-01-08T07:21:38.310Z,8.00
2023-01-08T07:22:38.292Z,8.00
2023-01-08T07:23:38.311Z,12.00
2023-01-08T07:24:38.296Z,8.00
2023-01-08T07:25:38.302Z,8.00
2023-01-08T07:26:38.239Z,8.00
2023-01-08T07:27:38.226Z,12.00
2023-01-08T07:28:38.217Z,12.00
2023-01-08T07:29:38.192Z,12.00
2023-01-08T07:30:38.191Z,20.00
2023-01-08T07:31:38.201Z,20.00
2023-01-08T07:32:38.171Z,20.00
2023-01-08T07:33:38.172Z,24.00
2023-01-08T07:34:38.150Z,24.00
2023-01-08T07:35:38.140Z,28.00
2023-01-08T07:36:38.099Z,28.00
2023-01-08T07:37:38.079Z,24.00
2023-01-08T07:38:38.070Z,28.00
2023-01-08T07:39:38.076Z,32.00
2023-01-08T07:40:39.465Z,36.00
2023-01-08T07:41:38.041Z,40.00
2023-01-08T07:42:38.022Z,44.00
2023-01-08T07:43:38.006Z,48.00
2023-01-08T07:44:38.000Z,52.00
2023-01-08T07:45:38.001Z,60.00
2023-01-08T07:46:38.055Z,60.00
2023-01-08T07:47:37.946Z,60.00
2023-01-08T07:48:37.931Z,60.00
2023-01-08T07:49:37.939Z,64.00
2023-01-08T07:50:38.754Z,72.00
2023-01-08T07:51:37.892Z,88.00
2023-01-08T07:52:37.881Z,92.00
2023-01-08T07:53:37.891Z,84.00
2023-01-08T07:54:37.882Z,100.00
2023-01-08T07:55:37.854Z,124.00
2023-01-08T07:56:37.828Z,128.00
2023-01-08T07:57:37.810Z,148.00
2023-01-08T07:58:37.801Z,156.00
2023-01-08T07:59:37.791Z,160.00
2023-01-08T08:00:37.795Z,164.00
2023-01-08T08:01:37.863Z,172.00
2023-01-08T08:02:37.857Z,172.00
2023-01-08T08:03:37.778Z,172.00
2023-01-08T08:04:37.741Z,180.00
2023-01-08T08:05:37.721Z,180.00
2023-01-08T08:06:37.703Z,196.00
2023-01-08T08:07:37.709Z,212.00
2023-01-08T08:08:37.683Z,224.00
2023-01-08T08:09:37.663Z,232.00
2023-01-08T08:10:37.664Z,240.00
2023-01-08T08:11:37.632Z,244.00
2023-01-08T08:12:37.620Z,252.00
2023-01-08T08:13:37.606Z,256.00
2023-01-08T08:14:37.603Z,268.00
2023-01-08T08:15:37.589Z,272.00
2023-01-08T08:16:37.566Z,284.00
2023-01-08T08:17:37.549Z,288.00
2023-01-08T08:18:37.543Z,292.00
2023-01-08T08:19:37.525Z,296.00
2023-01-08T08:20:37.551Z,308.00
2023-01-08T08:21:37.492Z,316.00
2023-01-08T08:22:37.483Z,316.00
2023-01-08T08:23:37.482Z,320.00
2023-01-08T08:24:37.476Z,328.00
2023-01-08T08:25:37.474Z,328.00
2023-01-08T08:26:37.430Z,344.00
2023-01-08T08:27:37.414Z,356.00
2023-01-08T08:28:37.411Z,368.00
2023-01-08T08:29:37.394Z,360.00
2023-01-08T08:30:37.429Z,364.00
2023-01-08T08:31:37.429Z,372.00
2023-01-08T08:32:37.373Z,372.00
2023-01-08T08:33:37.344Z,376.00
2023-01-08T08:34:37.376Z,396.00
2023-01-08T08:35:37.338Z,412.00
2023-01-08T08:36:37.312Z,412.00
2023-01-08T08:37:37.272Z,416.00
2023-01-08T08:38:37.272Z,424.00
2023-01-08T08:39:37.258Z,432.00
2023-01-08T08:40:37.272Z,440.00
2023-01-08T08:41:37.250Z,452.00
2023-01-08T08:42:37.245Z,468.00
2023-01-08T08:43:37.220Z,476.00
2023-01-08T08:44:37.195Z,484.00
2023-01-08T08:45:37.193Z,504.00
2023-01-08T08:46:37.241Z,508.00
2023-01-08T08:47:37.168Z,508.00
2023-01-08T08:48:37.151Z,516.00
2023-01-08T08:49:37.124Z,528.00
2023-01-08T08:50:37.135Z,540.00
2023-01-08T08:51:37.100Z,556.00
2023-01-08T08:52:37.087Z,572.00
2023-01-08T08:53:37.097Z,576.00
2023-01-08T08:54:37.063Z,576.00
2023-01-08T08:55:37.082Z,588.00
2023-01-08T08:56:37.038Z,608.00
2023-01-08T08:57:37.029Z,608.00
2023-01-08T08:58:37.015Z,644.00
2023-01-08T08:59:37.008Z,680.00
2023-01-08T09:00:37.004Z,708.00
2023-01-08T09:01:37.070Z,748.00
2023-01-08T09:02:37.107Z,752.00
2023-01-08T09:03:36.970Z,764.00
2023-01-08T09:04:36.930Z,788.00
2023-01-08T09:05:36.943Z,804.00
2023-01-08T09:06:36.905Z,816.00
2023-01-08T09:07:36.909Z,828.00
2023-01-08T09:08:36.876Z,832.00
2023-01-08T09:09:36.871Z,840.00
2023-01-08T09:10:36.884Z,844.00
2023-01-08T09:11:36.856Z,852.00
2023-01-08T09:12:36.836Z,864.00
2023-01-08T09:13:36.808Z,876.00
2023-01-08T09:14:36.798Z,880.00
2023-01-08T09:15:36.797Z,892.00
2023-01-08T09:16:36.879Z,904.00
2023-01-08T09:17:36.767Z,912.00
2023-01-08T09:18:36.787Z,920.00
2023-01-08T09:19:36.748Z,924.00
2023-01-08T09:20:36.746Z,932.00
2023-01-08T09:21:36.701Z,940.00
2023-01-08T09:22:36.691Z,956.00
2023-01-08T09:23:36.689Z,972.00
2023-01-08T09:24:36.678Z,996.00
2023-01-08T09:25:36.689Z,1024.00
2023-01-08T09:26:36.658Z,1084.00
2023-01-08T09:27:36.637Z,1204.00
2023-01-08T09:28:36.615Z,1312.00
2023-01-08T09:29:36.587Z,1416.00
2023-01-08T09:30:36.594Z,1548.00
2023-01-08T09:31:36.649Z,1648.00
2023-01-08T09:32:36.561Z,1748.00
2023-01-08T09:33:36.538Z,1832.00
2023-01-08T09:34:36.534Z,1892.00
2023-01-08T09:35:36.524Z,1912.00
2023-01-08T09:36:36.526Z,1996.00
2023-01-08T09:37:36.487Z,2012.00
2023-01-08T09:38:36.483Z,2136.00
2023-01-08T09:39:36.468Z,2148.00
2023-01-08T09:40:36.455Z,2064.00
2023-01-08T09:41:36.450Z,1888.00
2023-01-08T09:42:36.445Z,1728.00
2023-01-08T09:43:36.418Z,1632.00
2023-01-08T09:44:36.430Z,1612.00
2023-01-08T09:45:36.388Z,1680.00
2023-01-08T09:46:36.414Z,1832.00
2023-01-08T09:47:36.356Z,2072.00
2023-01-08T09:48:36.353Z,2412.00
2023-01-08T09:49:36.327Z,2716.00
2023-01-08T09:50:36.321Z,2996.00
2023-01-08T09:51:36.338Z,3072.00
2023-01-08T09:52:36.356Z,3116.00
2023-01-08T09:53:36.292Z,3020.00
2023-01-08T09:54:36.261Z,2804.00
2023-01-08T09:55:36.291Z,2552.00
2023-01-08T09:56:36.241Z,2448.00
2023-01-08T09:57:36.238Z,2296.00
2023-01-08T09:58:36.212Z,1996.00
2023-01-08T09:59:36.221Z,1720.00
2023-01-08T10:00:36.266Z,1644.00
2023-01-08T10:01:36.412Z,1952.00
2023-01-08T10:02:36.265Z,2024.00
2023-01-08T10:03:36.140Z,1840.00
2023-01-08T10:04:36.131Z,1780.00
2023-01-08T10:05:36.119Z,1648.00
2023-01-08T10:06:36.126Z,1560.00
2023-01-08T10:07:36.083Z,1736.00
2023-01-08T10:08:36.094Z,2008.00
2023-01-08T10:09:36.063Z,1816.00
2023-01-08T10:10:36.064Z,1592.00
2023-01-08T10:11:36.079Z,1644.00
2023-01-08T10:12:36.026Z,1852.00
2023-01-08T10:13:36.019Z,2268.00
2023-01-08T10:14:36.021Z,2380.00
2023-01-08T10:15:36.002Z,2212.00
2023-01-08T10:16:36.151Z,2052.00
2023-01-08T10:17:35.985Z,2048.00
2023-01-08T10:18:35.947Z,1928.00
2023-01-08T10:19:35.932Z,1816.00
2023-01-08T10:20:35.915Z,1764.00
2023-01-08T10:21:35.946Z,1900.00
2023-01-08T10:22:35.896Z,1984.00
2023-01-08T10:23:35.874Z,2104.00
2023-01-08T10:24:35.885Z,2464.00
2023-01-08T10:25:35.845Z,2632.00
2023-01-08T10:26:35.857Z,2568.00
2023-01-08T10:27:35.821Z,2456.00
2023-01-08T10:28:35.804Z,2368.00
2023-01-08T10:29:35.796Z,2500.00
2023-01-08T10:30:35.795Z,3212.00
2023-01-08T10:31:35.854Z,3716.00
2023-01-08T10:32:35.768Z,4148.00
2023-01-08T10:33:35.736Z,4552.00
2023-01-08T10:34:35.729Z,4908.00
2023-01-08T10:35:35.706Z,5092.00
2023-01-08T10:36:35.727Z,5304.00
2023-01-08T10:37:35.677Z,4912.00
2023-01-08T10:38:35.678Z,4424.00
2023-01-08T10:39:35.657Z,3972.00
2023-01-08T10:40:35.649Z,3904.00
2023-01-08T10:41:35.666Z,3452.00
2023-01-08T10:42:35.619Z,3000.00
2023-01-08T10:43:35.608Z,2520.00
2023-01-08T10:44:35.596Z,2252.00
2023-01-08T10:45:35.597Z,1976.00
2023-01-08T10:46:35.599Z,1640.00
2023-01-08T10:47:35.568Z,1536.00
2023-01-08T10:48:35.556Z,1572.00
2023-01-08T10:49:35.516Z,1640.00
2023-01-08T10:50:35.519Z,1980.00
2023-01-08T10:51:35.551Z,3220.00
2023-01-08T10:52:35.495Z,4364.00
2023-01-08T10:53:35.525Z,4732.00
2023-01-08T10:54:35.466Z,4792.00
2023-01-08T10:55:35.452Z,4492.00
2023-01-08T10:56:35.441Z,4884.00
2023-01-08T10:57:35.432Z,3984.00
2023-01-08T10:58:35.420Z,3568.00
2023-01-08T10:59:35.389Z,3616.00
2023-01-08T11:00:35.449Z,3232.00
2023-01-08T11:01:35.415Z,3464.00
2023-01-08T11:02:38.148Z,4216.00
2023-01-08T11:03:35.339Z,3916.00
2023-01-08T11:04:35.341Z,3076.00
2023-01-08T11:05:35.315Z,2152.00
2023-01-08T11:06:35.303Z,1832.00
2023-01-08T11:07:35.289Z,2260.00
2023-01-08T11:08:35.274Z,3440.00
2023-01-08T11:09:35.266Z,2992.00
2023-01-08T11:10:35.252Z,2444.00
2023-01-08T11:11:35.239Z,2444.00
2023-01-08T11:12:35.222Z,3496.00
2023-01-08T11:13:35.206Z,3816.00
2023-01-08T11:14:35.209Z,3884.00
2023-01-08T11:15:35.203Z,2648.00
2023-01-08T11:16:35.206Z,2440.00
2023-01-08T11:17:35.153Z,2576.00
2023-01-08T11:18:35.136Z,2284.00
2023-01-08T11:19:35.155Z,1408.00
2023-01-08T11:20:35.141Z,1296.00
2023-01-08T11:21:35.104Z,1352.00
2023-01-08T11:22:35.079Z,1408.00
2023-01-08T11:23:35.073Z,1724.00
2023-01-08T11:24:35.054Z,1780.00
2023-01-08T11:25:35.063Z,1756.00
2023-01-08T11:26:35.032Z,1984.00
2023-01-08T11:27:35.041Z,1836.00
2023-01-08T11:28:35.007Z,2008.00
2023-01-08T11:29:34.995Z,2044.00
2023-01-08T11:30:34.995Z,1352.00
2023-01-08T11:31:35.021Z,1120.00
2023-01-08T11:32:34.945Z,944.00
2023-01-08T11:33:34.943Z,964.00
2023-01-08T11:34:34.915Z,1076.00
2023-01-08T11:35:34.934Z,1644.00
2023-01-08T11:36:34.895Z,3324.00
2023-01-08T11:37:34.885Z,2400.00
2023-01-08T11:38:34.885Z,1760.00
2023-01-08T11:39:34.867Z,1492.00
2023-01-08T11:40:34.861Z,1452.00
2023-01-08T11:41:34.836Z,1636.00
2023-01-08T11:42:34.814Z,1472.00
2023-01-08T11:43:34.805Z,1076.00
2023-01-08T11:44:34.787Z,976.00
2023-01-08T11:45:34.825Z,1500.00
2023-01-08T11:46:34.761Z,1708.00
2023-01-08T11:47:34.756Z,1180.00
2023-01-08T11:48:34.735Z,964.00
2023-01-08T11:49:34.728Z,1000.00
2023-01-08T11:50:34.745Z,896.00
2023-01-08T11:51:34.705Z,928.00
2023-01-08T11:52:34.686Z,892.00
2023-01-08T11:53:34.679Z,780.00
2023-01-08T11:54:34.659Z,660.00
2023-01-08T11:55:34.666Z,476.00
2023-01-08T11:56:34.628Z,520.00
2023-01-08T11:57:34.628Z,544.00
2023-01-08T11:58:34.627Z,432.00
2023-01-08T11:59:34.615Z,328.00
2023-01-08T12:00:34.601Z,320.00
2023-01-08T12:01:34.603Z,500.00
2023-01-08T12:02:34.631Z,772.00
2023-01-08T12:03:34.636Z,1396.00
2023-01-08T12:04:34.543Z,1904.00
2023-01-08T12:05:34.534Z,1848.00
2023-01-08T12:06:36.860Z,1624.00
2023-01-08T12:07:34.491Z,1684.00
2023-01-08T12:08:34.489Z,1984.00
2023-01-08T12:09:34.461Z,1428.00
2023-01-08T12:10:34.480Z,880.00
2023-01-08T12:11:34.441Z,728.00
2023-01-08T12:12:34.428Z,840.00
2023-01-08T12:13:34.410Z,1104.00
2023-01-08T12:14:34.408Z,1260.00
2023-01-08T12:15:34.411Z,1248.00
2023-01-08T12:16:34.438Z,1012.00
2023-01-08T12:17:34.381Z,968.00
2023-01-08T12:18:34.341Z,1208.00
2023-01-08T12:19:34.330Z,1596.00
2023-01-08T12:20:34.355Z,1424.00
2023-01-08T12:21:34.314Z,2748.00
2023-01-08T12:22:34.309Z,3496.00
2023-01-08T12:23:34.286Z,3260.00
2023-01-08T12:24:34.275Z,2344.00
2023-01-08T12:25:34.268Z,1472.00
2023-01-08T12:26:34.249Z,1372.00
2023-01-08T12:27:55.321Z,1356.00
2023-01-08T12:28:35.203Z,1344.00
2023-01-08T12:29:34.194Z,1336.00
2023-01-08T12:30:34.202Z,1328.00
2023-01-08T12:31:34.193Z,1324.00
2023-01-08T12:32:34.157Z,1324.00
2023-01-08T12:33:34.143Z,1316.00
2023-01-08T12:34:34.164Z,1316.00
2023-01-08T12:35:34.123Z,1324.00
2023-01-08T12:36:34.114Z,1320.00
2023-01-08T12:37:34.086Z,1328.00
2023-01-08T12:38:34.072Z,1324.00
2023-01-08T12:39:34.071Z,1324.00
2023-01-08T12:40:34.053Z,1324.00
2023-01-08T12:41:34.052Z,1324.00
2023-01-08T12:42:34.040Z,1320.00
2023-01-08T12:43:34.014Z,1320.00
2023-01-08T12:44:34.005Z,1312.00
2023-01-08T12:45:34.084Z,1308.00
2023-01-08T12:46:41.009Z,1308.00
2023-01-08T12:47:33.949Z,1308.00
2023-01-08T12:48:33.942Z,1300.00
2023-01-08T12:49:33.930Z,1312.00
2023-01-08T12:50:33.922Z,1320.00
2023-01-08T12:51:33.920Z,1328.00
2023-01-08T12:52:33.887Z,1352.00